Time;durP1;ratioP1;P1;durP2;ratioP2;P2;SDS_P1;SDS_P2;PMS_P1;PMS_P2;Temp;Humidity;BMP_temperature;BMP_pressure;BME280_temperature;BME280_humidity;BME280_pressure;Samples;Min_cycle;Max_cycle;Signal;HPM_P1;HPM_P2
2021/05/11 00:01:07;;;;;;;2.43;1.83;;;11.80;1.00;;;;;;4867813;28;20233;-73
2021/05/11 00:03:29;;;;;;;1.30;1.13;;;;;;;;;;4874628;28;20258;-74
2021/05/11 00:05:51;;;;;;;1.63;1.53;;;11.50;1.00;;;;;;4873857;28;20278;-73
2021/05/11 00:08:14;;;;;;;2.70;1.87;;;11.50;99.90;;;;;;4857753;28;20224;-75
2021/05/11 00:10:37;;;;;;;0.97;0.97;;;;;;;;;;4874029;28;20225;-74
2021/05/11 00:12:59;;;;;;;1.10;1.07;;;;;;;;;;4858659;28;20289;-73
2021/05/11 00:15:21;;;;;;;2.83;2.13;;;;;;;;;;4856968;28;20206;-73
2021/05/11 00:17:45;;;;;;;1.13;1.03;;;11.30;99.90;;;;;;4857740;28;20182;-74
2021/05/11 00:20:08;;;;;;;2.23;1.90;;;11.20;1.00;;;;;;4875306;28;20186;-73
2021/05/11 00:22:30;;;;;;;1.40;1.30;;;;;;;;;;4875409;28;20633;-73
2021/05/11 00:24:53;;;;;;;1.17;1.07;;;11.00;1.00;;;;;;4858246;28;20194;-73
2021/05/11 00:27:15;;;;;;;2.13;1.63;;;;;;;;;;4855803;28;20210;-73
2021/05/11 00:29:38;;;;;;;1.10;0.87;;;;;;;;;;4858424;28;20217;-73
2021/05/11 00:32:00;;;;;;;2.00;1.40;;;;;;;;;;4857810;28;20186;-73
2021/05/11 00:34:22;;;;;;;1.80;1.40;;;;;;;;;;4874112;28;20583;-73
2021/05/11 00:36:44;;;;;;;2.83;1.80;;;;;;;;;;4872856;28;20201;-73
2021/05/11 00:39:06;;;;;;;2.20;1.70;;;10.80;1.00;;;;;;4874433;28;20197;-72
2021/05/11 00:41:29;;;;;;;1.30;1.20;;;10.90;1.00;;;;;;4874701;28;20231;-72
2021/05/11 00:43:52;;;;;;;1.60;1.50;;;;;;;;;;4857189;28;20244;-72
2021/05/11 00:46:15;;;;;;;1.40;1.30;;;10.80;1.00;;;;;;4856478;28;20638;-72
2021/05/11 00:48:37;;;;;;;1.27;1.17;;;;;;;;;;4856552;28;20190;-72
2021/05/11 00:50:59;;;;;;;2.20;1.67;;;;;;;;;;4840806;28;20579;-73
2021/05/11 00:53:22;;;;;;;1.80;1.50;;;;;;;;;;4874194;28;20197;-72
2021/05/11 00:55:45;;;;;;;1.30;1.20;;;10.60;1.00;;;;;;4874764;28;20185;-72
2021/05/11 00:58:11;;;;;;;3.03;2.47;;;10.50;1.00;;;;;;4855983;28;20260;-73
2021/05/11 01:00:33;;;;;;;3.93;3.53;;;;;;;;;;4873179;28;20255;-73
2021/05/11 01:02:55;;;;;;;1.30;1.20;;;;;;;;;;4871428;28;20221;-72
2021/05/11 01:05:18;;;;;;;2.13;1.93;;;;;;;;;;4874253;28;20288;-73
2021/05/11 01:07:40;;;;;;;1.27;1.17;;;;;;;;;;4875450;28;20186;-72
2021/05/11 01:10:02;;;;;;;1.20;1.10;;;;;;;;;;4856231;28;20283;-72
2021/05/11 01:12:24;;;;;;;1.33;1.23;;;;;;;;;;4873992;28;20263;-73
2021/05/11 01:14:48;;;;;;;1.00;1.00;;;10.30;1.00;;;;;;4875681;28;20716;-74
2021/05/11 01:17:16;;;;;;;1.63;1.43;;;;;;;;;;4856500;28;20215;-73
2021/05/11 01:19:44;;;;;;;1.07;1.03;;;;;;;;;;4856579;28;20198;-74
2021/05/11 01:22:22;;;;;;;1.70;1.60;;;10.30;99.90;;;;;;4874546;28;20239;-74
2021/05/11 01:24:47;;;;;;;1.23;1.13;;;10.30;1.00;;;;;;4875270;28;20185;-74
2021/05/11 01:27:14;;;;;;;1.83;1.73;;;10.20;1.00;;;;;;4874123;28;20185;-75
2021/05/11 01:29:43;;;;;;;1.40;1.30;;;10.30;1.00;;;;;;4856861;28;20245;-74
2021/05/11 01:48:20;;;;;;;1.10;1.00;;;10.20;5.60;;;;;;4858132;28;20202;-73
2021/05/11 01:50:46;;;;;;;1.00;1.00;;;10.30;99.90;;;;;;4867298;28;20967;-73
2021/05/11 01:53:36;;;;;;;1.30;1.20;;;10.30;99.90;;;;;;4859206;28;20188;-74
2021/05/11 02:22:45;;;;;;;0.93;0.93;;;10.10;1.00;;;;;;4872750;28;20622;-76
2021/05/11 02:25:09;;;;;;;1.30;1.20;;;10.10;89.30;;;;;;4875909;28;20200;-73
2021/05/11 02:27:31;;;;;;;0.97;0.97;;;10.10;1.00;;;;;;4859885;28;20198;-72
2021/05/11 02:29:53;;;;;;;1.17;1.07;;;10.00;1.00;;;;;;4877902;28;20219;-73
2021/05/11 02:32:16;;;;;;;0.90;0.90;;;10.10;1.00;;;;;;4877212;28;20243;-73
2021/05/11 02:34:39;;;;;;;0.70;0.70;;;10.20;99.90;;;;;;4876726;28;20194;-74
2021/05/11 02:37:01;;;;;;;1.07;0.80;;;10.20;99.90;;;;;;4876184;28;20283;-72
2021/05/11 02:39:23;;;;;;;0.90;0.90;;;10.30;57.60;;;;;;4876556;28;20890;-74
2021/05/11 02:41:46;;;;;;;0.80;0.80;;;10.40;1.00;;;;;;4877677;28;20299;-72
2021/05/11 02:44:08;;;;;;;0.90;0.90;;;10.50;1.00;;;;;;4874725;28;20784;-73
2021/05/11 02:46:31;;;;;;;0.80;0.80;;;;;;;;;;4876837;28;20587;-74
2021/05/11 02:48:55;;;;;;;0.80;0.80;;;;;;;;;;4876947;28;20189;-75
2021/05/11 02:51:17;;;;;;;0.73;0.73;;;10.70;99.90;;;;;;4843026;28;20770;-73
2021/05/11 02:53:39;;;;;;;0.80;0.80;;;10.80;1.00;;;;;;4859196;28;20206;-76
2021/05/11 02:56:01;;;;;;;0.87;0.87;;;10.90;99.90;;;;;;4876586;28;20185;-75
2021/05/11 02:58:24;;;;;;;0.80;0.80;;;10.80;1.00;;;;;;4854912;28;20210;-72
2021/05/11 03:00:47;;;;;;;0.97;0.97;;;10.90;1.00;;;;;;4868411;28;20605;-74
2021/05/11 03:03:09;;;;;;;0.70;0.70;;;11.20;1.00;;;;;;4855782;28;20252;-74
2021/05/11 03:05:32;;;;;;;0.63;0.63;;;;;;;;;;4858001;28;20304;-73
2021/05/11 03:07:54;;;;;;;0.63;0.63;;;11.10;1.00;;;;;;4877447;28;20203;-74
2021/05/11 03:10:18;;;;;;;0.77;0.77;;;11.10;1.00;;;;;;4876028;28;20239;-73
2021/05/11 03:12:40;;;;;;;1.80;0.97;;;11.30;1.00;;;;;;4876080;28;20201;-73
2021/05/11 03:15:05;;;;;;;1.40;0.80;;;11.20;99.90;;;;;;4858024;28;20235;-74
2021/05/11 03:17:28;;;;;;;0.70;0.70;;;;;;;;;;4870279;28;20251;-73
2021/05/11 03:19:50;;;;;;;0.93;0.87;;;11.40;1.00;;;;;;4876039;28;20181;-71
2021/05/11 03:22:12;;;;;;;0.70;0.70;;;11.40;1.00;;;;;;4876882;28;20219;-74
2021/05/11 03:24:35;;;;;;;0.70;0.70;;;11.40;1.00;;;;;;4876599;28;20190;-72
2021/05/11 03:26:57;;;;;;;0.60;0.60;;;;;;;;;;4875847;28;20181;-72
2021/05/11 03:29:19;;;;;;;0.77;0.77;;;11.50;99.90;;;;;;4858598;28;20809;-73
2021/05/11 03:31:43;;;;;;;0.60;0.60;;;11.40;99.90;;;;;;4875878;28;20189;-74
2021/05/11 03:34:05;;;;;;;0.73;0.73;;;;;;;;;;4858519;28;20198;-72
2021/05/11 03:36:27;;;;;;;0.73;0.70;;;11.60;99.90;;;;;;4857509;28;20205;-72
2021/05/11 03:38:52;;;;;;;0.70;0.70;;;11.40;99.90;;;;;;4858945;28;20185;-71
2021/05/11 03:41:15;;;;;;;0.53;0.53;;;11.80;99.90;;;;;;4875124;28;20207;-72
2021/05/11 03:43:47;;;;;;;0.60;0.60;;;11.70;99.90;;;;;;4875249;28;20228;-71
2021/05/11 03:46:10;;;;;;;0.80;0.80;;;11.80;99.90;;;;;;4874990;28;20597;-72
2021/05/11 03:48:33;;;;;;;0.60;0.60;;;11.30;99.90;;;;;;4876381;28;20259;-74
2021/05/11 03:50:56;;;;;;;0.70;0.70;;;;;;;;;;4858384;28;20287;-72
2021/05/11 03:53:18;;;;;;;0.60;0.60;;;12.00;1.00;;;;;;4857451;28;20240;-74
2021/05/11 03:55:40;;;;;;;0.70;0.70;;;11.90;1.00;;;;;;4875508;28;20651;-72
2021/05/11 03:58:02;;;;;;;0.80;0.80;;;12.00;38.70;;;;;;4875657;28;20190;-73
2021/05/11 04:00:25;;;;;;;0.80;0.80;;;;;;;;;;4840999;28;20191;-72
2021/05/11 04:02:47;;;;;;;0.70;0.70;;;12.00;90.80;;;;;;4855799;28;20233;-73
2021/05/11 04:05:13;;;;;;;0.90;0.90;;;12.20;1.00;;;;;;4857082;28;20296;-75
2021/05/11 04:07:37;;;;;;;0.70;0.70;;;12.40;99.90;;;;;;4875783;28;20185;-73
2021/05/11 04:10:01;;;;;;;0.50;0.50;;;;;;;;;;4876137;28;21002;-76
2021/05/11 04:13:02;;;;;;;0.60;0.60;;;12.60;99.90;;;;;;4875462;28;20189;-74
2021/05/11 04:18:05;;;;;;;0.70;0.70;;;;;;;;;;4875360;28;20181;-72
2021/05/11 04:20:28;;;;;;;0.60;0.60;;;12.90;1.00;;;;;;4868235;28;20193;-72
2021/05/11 04:22:50;;;;;;;1.23;0.60;;;12.60;99.90;;;;;;4850022;28;20300;-74
2021/05/11 04:25:13;;;;;;;0.70;0.70;;;12.80;1.00;;;;;;4873890;28;20560;-73
2021/05/11 04:27:35;;;;;;;0.70;0.70;;;12.90;99.90;;;;;;4857985;28;20224;-73
2021/05/11 04:30:00;;;;;;;0.50;0.50;;;;;;;;;;4875399;28;20204;-75
2021/05/11 04:32:22;;;;;;;0.60;0.60;;;12.90;99.90;;;;;;4875371;28;20193;-75
2021/05/11 04:34:44;;;;;;;0.70;0.70;;;;;;;;;;4875617;28;20181;-73
2021/05/11 04:37:08;;;;;;;1.67;0.70;;;13.10;52.70;;;;;;4874284;28;20197;-73
2021/05/11 04:39:30;;;;;;;0.60;0.60;;;13.40;99.90;;;;;;4873556;28;20256;-73
2021/05/11 04:41:52;;;;;;;0.50;0.50;;;13.40;99.90;;;;;;4858101;28;20563;-72
2021/05/11 04:44:16;;;;;;;0.70;0.70;;;13.40;1.00;;;;;;4874812;28;20561;-72
2021/05/11 04:46:45;;;;;;;1.23;0.60;;;13.70;1.00;;;;;;4869367;28;20198;-72
2021/05/11 04:49:07;;;;;;;0.80;0.80;;;;;;;;;;4873080;28;20231;-72
2021/05/11 04:51:30;;;;;;;0.60;0.60;;;;;;;;;;4875379;28;20209;-75
2021/05/11 04:53:53;;;;;;;0.60;0.60;;;14.00;1.00;;;;;;4875406;28;20190;-72
2021/05/11 04:56:15;;;;;;;0.50;0.50;;;;;;;;;;4874216;28;20211;-73
2021/05/11 04:58:38;;;;;;;0.40;0.40;;;14.30;1.00;;;;;;4856628;28;20194;-72
2021/05/11 05:01:01;;;;;;;0.57;0.57;;;;;;;;;;4868876;28;20683;-73
2021/05/11 05:03:26;;;;;;;0.53;0.53;;;;;;;;;;4873378;28;20593;-72
2021/05/11 05:05:48;;;;;;;0.40;0.40;;;14.80;1.00;;;;;;4874555;28;20215;-74
2021/05/11 05:08:10;;;;;;;0.63;0.63;;;15.00;1.00;;;;;;4839372;28;20652;-73
2021/05/11 05:10:33;;;;;;;0.50;0.50;;;14.60;1.00;;;;;;4856455;28;20226;-74
2021/05/11 05:12:55;;;;;;;0.53;0.53;;;14.60;1.00;;;;;;4874795;28;20181;-73
2021/05/11 05:15:18;;;;;;;0.80;0.80;;;;;;;;;;4874235;28;20197;-74
2021/05/11 05:17:40;;;;;;;0.50;0.50;;;;;;;;;;4841552;28;20190;-74
2021/05/11 05:20:03;;;;;;;0.60;0.60;;;15.80;1.00;;;;;;4872499;28;20338;-73
2021/05/11 05:22:25;;;;;;;0.40;0.40;;;16.20;1.00;;;;;;4874616;28;20558;-72
2021/05/11 05:24:49;;;;;;;0.60;0.60;;;15.70;1.00;;;;;;4879152;28;20714;-74
2021/05/11 05:27:18;;;;;;;0.47;0.47;;;16.40;1.00;;;;;;4876470;28;20235;-72
2021/05/11 05:29:40;;;;;;;0.50;0.50;;;;;;;;;;4878343;28;20543;-73
2021/05/11 05:32:02;;;;;;;0.40;0.40;;;;;;;;;;4867955;28;20220;-74
2021/05/11 05:34:24;;;;;;;0.60;0.40;;;;;;;;;;4877217;28;20205;-72
2021/05/11 05:36:46;;;;;;;0.50;0.50;;;16.30;1.00;;;;;;4860419;28;20182;-73
2021/05/11 05:39:08;;;;;;;0.50;0.50;;;16.50;1.00;;;;;;4873875;28;20659;-72
2021/05/11 05:41:33;;;;;;;0.40;0.40;;;16.90;1.00;;;;;;4876229;28;20287;-73
2021/05/11 05:43:58;;;;;;;0.33;0.33;;;16.90;1.00;;;;;;4878979;28;20185;-72
2021/05/11 05:46:21;;;;;;;0.47;0.47;;;;;;;;;;4877508;28;20247;-73
2021/05/11 05:48:43;;;;;;;0.50;0.50;;;;;;;;;;4879332;28;20178;-75
2021/05/11 05:51:06;;;;;;;0.60;0.60;;;;;;;;;;4877771;28;20582;-73
2021/05/11 05:53:34;;;;;;;0.50;0.50;;;18.10;1.00;;;;;;4857539;28;20182;-73
2021/05/11 05:55:56;;;;;;;0.40;0.40;;;;;;;;;;4869778;28;20182;-76
2021/05/11 05:58:19;;;;;;;0.40;0.40;;;;;;;;;;4859743;28;20194;-74
2021/05/11 06:00:42;;;;;;;1.13;1.13;;;18.20;99.90;;;;;;4860995;28;20197;-72
2021/05/11 06:03:05;;;;;;;0.50;0.50;;;18.00;1.00;;;;;;4874565;28;20678;-72
2021/05/11 06:05:28;;;;;;;0.40;0.40;;;18.50;99.90;;;;;;4877924;28;20595;-76
2021/05/11 06:07:51;;;;;;;0.50;0.50;;;18.30;1.00;;;;;;4844158;28;20701;-72
2021/05/11 06:10:14;;;;;;;0.40;0.40;;;19.10;99.90;;;;;;4877176;28;20209;-74
2021/05/11 06:12:41;;;;;;;0.40;0.40;;;19.50;99.90;;;;;;4877664;28;20236;-74
2021/05/11 06:17:42;;;;;;;0.20;0.20;;;20.30;1.00;;;;;;4878620;28;20189;-73
2021/05/11 06:20:06;;;;;;;0.47;0.47;;;19.90;99.90;;;;;;4878764;28;20205;-74
2021/05/11 06:22:28;;;;;;;0.30;0.30;;;;;;;;;;4878604;28;20235;-72
2021/05/11 06:24:50;;;;;;;0.20;0.20;;;19.40;1.00;;;;;;4877180;28;20185;-72
2021/05/11 06:27:13;;;;;;;0.40;0.40;;;19.50;99.90;;;;;;4860120;28;20195;-76
2021/05/11 06:29:37;;;;;;;0.90;0.37;;;20.10;99.90;;;;;;4860775;28;20198;-74
2021/05/11 06:31:59;;;;;;;0.30;0.30;;;20.10;1.00;;;;;;4860131;28;20235;-72
2021/05/11 06:34:22;;;;;;;0.60;0.60;;;20.10;99.90;;;;;;4841484;28;20196;-73
2021/05/11 06:36:45;;;;;;;0.30;0.30;;;;;;;;;;4858435;28;20197;-73
2021/05/11 06:39:09;;;;;;;0.40;0.40;;;20.50;99.90;;;;;;4877352;28;20186;-72
2021/05/11 06:41:31;;;;;;;0.30;0.30;;;20.20;1.00;;;;;;4860343;28;20659;-75
2021/05/11 06:43:55;;;;;;;0.30;0.30;;;20.90;1.00;;;;;;4859898;28;20204;-74
2021/05/11 06:49:25;;;;;;;0.33;0.33;;;21.00;99.90;;;;;;4822323;28;20719;-78
2021/05/11 06:54:31;;;;;;;0.30;0.30;;;21.00;1.00;;;;;;4868821;28;20196;-77
2021/05/11 06:56:55;;;;;;;0.53;0.53;;;;;;;;;;4857108;28;20210;-79
2021/05/11 06:59:17;;;;;;;0.63;0.63;;;21.40;99.90;;;;;;4875090;28;20241;-74
2021/05/11 07:01:39;;;;;;;0.60;0.47;;;22.20;1.00;;;;;;4873541;28;20198;-72
2021/05/11 07:04:02;;;;;;;0.60;0.60;;;21.60;99.90;;;;;;4876441;28;20624;-78
2021/05/11 07:06:26;;;;;;;0.73;0.73;;;22.10;99.90;;;;;;4858551;28;20863;-79
2021/05/11 07:08:53;;;;;;;0.80;0.80;;;22.10;1.00;;;;;;4836539;28;20670;-75
2021/05/11 07:13:05;;;;;;;1.07;0.97;;;22.70;99.90;;;;;;4837132;28;20227;-80
2021/05/11 07:14:11;;;;;;;0.80;0.80;;;;;;;;;;4837937;28;20181;-79
2021/05/11 07:16:33;;;;;;;0.43;0.43;;;23.30;99.90;;;;;;4837395;28;20235;-76
2021/05/11 07:18:56;;;;;;;0.40;0.40;;;;;;;;;;4835905;28;20202;-75
2021/05/11 07:21:18;;;;;;;0.63;0.63;;;24.10;1.00;;;;;;4836683;28;20584;-75
2021/05/11 07:23:40;;;;;;;0.60;0.60;;;24.20;1.00;;;;;;4853442;28;20270;-78
2021/05/11 07:26:09;;;;;;;0.43;0.43;;;24.10;99.90;;;;;;4836065;28;20205;-77
2021/05/11 07:28:46;;;;;;;1.10;1.00;;;24.30;99.90;;;;;;4835085;28;20188;-73
2021/05/11 07:31:08;;;;;;;0.50;0.50;;;;;;;;;;4828621;28;20293;-78
2021/05/11 07:33:33;;;;;;;0.60;0.60;;;24.60;1.00;;;;;;4837180;28;20267;-77
2021/05/11 07:35:56;;;;;;;0.47;0.47;;;;;;;;;;4838685;28;20224;-77
2021/05/11 07:38:18;;;;;;;0.70;0.70;;;;;;;;;;4837725;28;20201;-74
2021/05/11 07:40:40;;;;;;;0.50;0.50;;;;;;;;;;4836546;28;20608;-74
2021/05/11 07:43:03;;;;;;;0.70;0.70;;;25.70;99.90;;;;;;4838193;28;20191;-77
2021/05/11 07:45:40;;;;;;;0.60;0.60;;;;;;;;;;4835880;28;20267;-77
2021/05/11 07:48:20;;;;;;;0.50;0.50;;;25.80;1.00;;;;;;4835807;28;20274;-74
2021/05/11 08:02:01;;;;;;;0.60;0.60;;;24.90;1.00;;;;;;4828860;28;20273;-73
2021/05/11 08:04:31;;;;;;;0.43;0.43;;;;;;;;;;4832841;28;20228;-72
2021/05/11 08:15:03;;;;;;;0.50;0.50;;;25.70;1.00;;;;;;4873156;28;20200;-73
2021/05/11 08:17:28;;;;;;;0.40;0.40;;;25.50;1.00;;;;;;4874752;28;20206;-79
2021/05/11 08:20:00;;;;;;;0.50;0.50;;;;;;;;;;4873924;28;20226;-80
2021/05/11 08:27:43;;;;;;;0.37;0.37;;;26.20;1.00;;;;;;4875335;28;20173;-74
2021/05/11 08:30:07;;;;;;;0.60;0.60;;;26.30;1.00;;;;;;4874872;28;20204;-74
2021/05/11 08:32:29;;;;;;;0.67;0.67;;;;;;;;;;4854216;28;20242;-77
2021/05/11 08:34:52;;;;;;;0.40;0.40;;;;;;;;;;4857616;28;20269;-74
2021/05/11 08:37:16;;;;;;;0.97;0.87;;;;;;;;;;4875498;28;20238;-79
2021/05/11 08:39:38;;;;;;;0.80;0.73;;;;;;;;;;4842338;28;20618;-81
2021/05/11 08:42:02;;;;;;;0.60;0.60;;;;;;;;;;4875697;28;20890;-80
2021/05/11 08:44:24;;;;;;;1.37;1.17;;;;;;;;;;4875403;28;20188;-80
2021/05/11 08:46:47;;;;;;;1.07;0.67;;;25.70;99.90;;;;;;4857102;28;20609;-81
2021/05/11 08:49:13;;;;;;;4.67;1.40;;;;;;;;;;4857997;28;20782;-72
2021/05/11 08:51:46;;;;;;;5.73;1.40;;;27.30;99.90;;;;;;4875582;28;20584;-77
2021/05/11 08:54:30;;;;;;;8.57;1.80;;;;;;;;;;4856717;28;20239;-73
2021/05/11 09:05:08;;;;;;;3.17;0.90;;;;;;;;;;4867403;28;20635;-72
2021/05/11 09:24:07;;;;;;;9.75;1.80;;;;;;;;;;4873833;28;20620;-79
2021/05/11 09:26:39;;;;;;;6.15;1.20;;;41.60;99.90;;;;;;4849572;28;20236;-76
2021/05/11 09:29:05;;;;;;;2.38;0.55;;;43.10;99.90;;;;;;4874709;28;20189;-73
2021/05/11 09:31:37;;;;;;;6.80;1.38;;;;;;;;;;4875670;28;20255;-80
2021/05/11 09:34:16;;;;;;;9.82;1.77;;;45.60;1.00;;;;;;4856733;28;20206;-76
2021/05/11 09:45:17;;;;;;;20.58;18.63;;;49.50;99.90;;;;;;4856327;28;20178;-87
2021/05/11 10:10:27;;;;;;;14.90;2.58;;;;;;;;;;4847751;28;20268;-86
2021/05/11 10:39:12;;;;;;;5.07;1.35;;;52.80;1.00;;;;;;4851805;28;20799;-72
2021/05/11 10:44:54;;;;;;;17.25;3.25;;;54.40;99.90;;;;;;4875942;28;20192;-78
2021/05/11 10:47:16;;;;;;;14.30;2.75;;;55.30;99.90;;;;;;4876719;28;20560;-84
2021/05/11 10:49:39;;;;;;;8.40;1.95;;;55.40;99.90;;;;;;4877040;28;20234;-86
2021/05/11 10:52:09;;;;;;;6.68;1.73;;;55.80;99.90;;;;;;4877618;28;20197;-77
2021/05/11 10:54:35;;;;;;;14.52;2.95;;;55.20;1.00;;;;;;4866880;28;20751;-82
2021/05/11 10:57:02;;;;;;;7.35;1.90;;;56.10;99.90;;;;;;4876555;28;20185;-74
2021/05/11 11:02:24;;;;;;;6.32;1.92;;;57.00;99.90;;;;;;4860584;28;20286;-73
2021/05/11 11:04:47;;;;;;;13.77;2.95;;;57.20;99.90;;;;;;4861652;28;20332;-89
2021/05/11 11:07:10;;;;;;;18.08;3.47;;;;;;;;;;4857555;28;20698;-85
2021/05/11 11:09:33;;;;;;;8.98;2.17;;;55.20;99.90;;;;;;4859889;28;20248;-73
2021/05/11 11:11:56;;;;;;;8.00;2.03;;;55.70;99.90;;;;;;4878038;28;20209;-82
2021/05/11 11:14:19;;;;;;;13.55;2.83;;;55.60;99.90;;;;;;4877420;28;20543;-77
2021/05/11 11:16:41;;;;;;;4.03;1.58;;;;;;;;;;4859034;28;20201;-78
2021/05/11 11:19:08;;;;;;;6.70;2.08;;;56.60;99.90;;;;;;4859426;28;20246;-85
2021/05/11 11:21:46;;;;;;;8.50;2.28;;;56.80;99.90;;;;;;4841323;28;20225;-84
2021/05/11 11:24:09;;;;;;;16.42;3.42;;;55.90;99.90;;;;;;4861331;28;20200;-83
2021/05/11 11:26:32;;;;;;;16.05;3.30;;;55.30;99.90;;;;;;4858912;28;20185;-87
2021/05/11 11:29:01;;;;;;;7.50;2.08;;;54.80;99.90;;;;;;4877227;28;20239;-84
2021/05/11 11:31:26;;;;;;;11.15;2.40;;;54.90;99.90;;;;;;4859892;28;20201;-86
2021/05/11 11:33:48;;;;;;;5.18;1.58;;;;;;;;;;4877594;28;20212;-77
2021/05/11 11:36:28;;;;;;;16.40;3.05;;;54.80;99.90;;;;;;4857324;28;20248;-78
2021/05/11 11:38:51;;;;;;;16.27;3.00;;;55.30;99.90;;;;;;4856351;28;20185;-84
2021/05/11 11:41:13;;;;;;;22.00;3.72;;;;;;;;;;4875238;28;20193;-80
2021/05/11 11:43:35;;;;;;;12.88;2.58;;;;;;;;;;4876165;28;20189;-85
2021/05/11 11:45:57;;;;;;;13.00;2.65;;;55.50;1.00;;;;;;4858230;28;20643;-81
2021/05/11 11:48:23;;;;;;;26.67;4.63;;;55.50;99.90;;;;;;4875416;28;20192;-82
2021/05/11 11:50:57;;;;;;;10.30;2.35;;;55.00;99.90;;;;;;4856903;28;20205;-74
2021/05/11 11:53:22;;;;;;;11.50;2.67;;;;;;;;;;4876642;28;20246;-74
2021/05/11 11:56:22;;;;;;;8.32;2.15;;;56.20;99.90;;;;;;4872647;28;20189;-82
2021/05/11 11:58:43;;;;;;;9.00;2.30;;;57.00;99.90;;;;;;4871067;28;20227;-79
2021/05/11 12:01:17;;;;;;;8.90;2.40;;;56.40;99.90;;;;;;4844035;28;20197;-82
2021/05/11 12:03:41;;;;;;;9.70;2.38;;;55.30;99.90;;;;;;4873838;28;20266;-82
2021/05/11 12:06:03;;;;;;;5.95;1.77;;;;;;;;;;4875642;28;20270;-74
2021/05/11 12:08:28;;;;;;;7.88;2.13;;;54.70;99.90;;;;;;4876177;28;20200;-84
2021/05/11 12:10:52;;;;;;;6.30;1.88;;;55.50;99.90;;;;;;4875071;28;20185;-82
2021/05/11 12:13:18;;;;;;;13.52;3.10;;;54.50;99.90;;;;;;4875738;28;20212;-81
2021/05/11 12:15:40;;;;;;;5.78;1.90;;;54.60;99.90;;;;;;4870066;28;20200;-84
2021/05/11 12:18:07;;;;;;;6.28;1.90;;;54.50;99.90;;;;;;4875274;28;20203;-72
2021/05/11 12:20:30;;;;;;;11.52;2.67;;;52.50;99.90;;;;;;4874073;28;20601;-83
2021/05/11 12:23:12;;;;;;;8.35;2.05;;;50.80;99.90;;;;;;4874782;28;20189;-78
2021/05/11 12:25:34;;;;;;;8.63;2.05;;;50.00;99.90;;;;;;4875292;28;20534;-82
2021/05/11 12:27:57;;;;;;;5.10;1.38;;;;;;;;;;4876218;28;20184;-81
2021/05/11 12:30:19;;;;;;;11.75;2.65;;;51.70;99.90;;;;;;4875499;28;20243;-82
2021/05/11 12:32:42;;;;;;;3.90;1.17;;;;;;;;;;4873934;28;20269;-76
2021/05/11 12:35:09;;;;;;;10.75;2.33;;;50.30;99.90;;;;;;4875092;28;20616;-73
2021/05/11 12:37:49;;;;;;;6.95;1.70;;;49.30;99.90;;;;;;4869244;28;20236;-75
2021/05/11 12:40:23;;;;;;;11.73;2.53;;;50.00;99.90;;;;;;4874613;28;20207;-77
2021/05/11 12:42:45;;;;;;;7.40;1.65;;;;;;;;;;4874347;28;20196;-80
2021/05/11 12:45:14;;;;;;;21.60;4.15;;;51.00;99.90;;;;;;4856428;28;20201;-76
2021/05/11 12:47:43;;;;;;;6.35;1.65;;;51.40;99.90;;;;;;4874092;28;20258;-84
2021/05/11 12:50:13;;;;;;;6.97;1.85;;;51.80;99.90;;;;;;4857869;28;20205;-85
2021/05/11 12:52:35;;;;;;;6.20;1.77;;;52.50;99.90;;;;;;4857521;28;20220;-82
2021/05/11 12:55:01;;;;;;;4.00;1.35;;;52.90;99.90;;;;;;4839873;28;20206;-78
2021/05/11 12:57:40;;;;;;;4.40;1.45;;;53.40;99.90;;;;;;4872610;28;20204;-79
2021/05/11 13:00:08;;;;;;;3.17;1.20;;;;;;;;;;4875456;28;20218;-78
2021/05/11 13:02:47;;;;;;;9.60;2.35;;;53.00;99.90;;;;;;4868933;28;20219;-76
2021/05/11 13:13:46;;;;;;;13.45;3.05;;;51.70;99.90;;;;;;4854700;28;20673;-82
2021/05/11 13:26:40;;;;;;;6.03;1.50;;;50.90;99.90;;;;;;4855175;28;20247;-85
2021/05/11 13:29:06;;;;;;;1.70;0.80;;;52.00;99.90;;;;;;4859723;28;20656;-78
2021/05/11 13:31:31;;;;;;;3.72;1.10;;;51.90;99.90;;;;;;4875684;28;20650;-73
2021/05/11 13:33:59;;;;;;;6.90;1.73;;;;;;;;;;4875391;28;20220;-79
2021/05/11 13:36:21;;;;;;;14.68;3.20;;;50.30;99.90;;;;;;4855644;28;20205;-76
2021/05/11 13:38:43;;;;;;;3.50;1.30;;;;;;;;;;4872997;28;20185;-73
2021/05/11 13:41:06;;;;;;;4.43;1.45;;;53.80;99.90;;;;;;4875300;28;20196;-85
2021/05/11 13:43:29;;;;;;;3.70;1.25;;;54.60;99.90;;;;;;4876263;28;20214;-90
2021/05/11 13:45:51;;;;;;;2.75;1.23;;;55.00;99.90;;;;;;4860422;28;20679;-84
2021/05/11 13:48:19;;;;;;;7.28;2.00;;;55.20;99.90;;;;;;4859590;28;20205;-87
2021/05/11 13:53:20;;;;;;;3.80;1.58;;;55.30;99.90;;;;;;4874007;28;20281;-72
2021/05/11 13:55:51;;;;;;;2.22;1.05;;;54.60;99.90;;;;;;4860458;28;20224;-74
2021/05/11 14:03:34;;;;;;;4.38;1.33;;;;;;;;;;4872337;28;20228;-85
2021/05/11 14:05:57;;;;;;;4.32;1.33;;;;;;;;;;4875820;28;20291;-85
2021/05/11 14:08:19;;;;;;;7.65;1.85;;;49.80;99.90;;;;;;4860190;28;20642;-83
2021/05/11 14:10:42;;;;;;;5.45;1.38;;;;;;;;;;4877873;28;20719;-83
2021/05/11 14:13:04;;;;;;;1.58;0.70;;;46.00;99.90;;;;;;4876782;28;20259;-77
2021/05/11 14:15:26;;;;;;;4.55;1.23;;;44.50;99.90;;;;;;4859120;28;20708;-83
2021/05/11 14:17:49;;;;;;;2.83;0.95;;;43.40;99.90;;;;;;4878580;28;20643;-82
2021/05/11 14:20:12;;;;;;;10.93;2.78;;;42.10;99.90;;;;;;4876814;28;20736;-86
2021/05/11 14:22:34;;;;;;;3.88;1.20;;;40.70;99.90;;;;;;4844377;28;20237;-88
2021/05/11 14:24:56;;;;;;;2.13;0.80;;;39.30;99.90;;;;;;4879272;28;20193;-85
2021/05/11 14:27:19;;;;;;;8.25;2.38;;;38.60;99.90;;;;;;4876889;28;20189;-77
2021/05/11 14:29:41;;;;;;;3.55;1.27;;;38.10;99.90;;;;;;4860402;28;20243;-72
2021/05/11 14:32:03;;;;;;;2.88;1.10;;;38.00;99.90;;;;;;4877734;28;20243;-79
2021/05/11 14:34:26;;;;;;;2.80;0.95;;;37.10;99.90;;;;;;4878247;28;20215;-81
2021/05/11 14:36:49;;;;;;;3.47;0.98;;;;;;;;;;4876885;28;20224;-71
2021/05/11 14:39:11;;;;;;;7.22;1.85;;;;;;;;;;4877608;28;20259;-92
2021/05/11 14:41:33;;;;;;;8.10;2.20;;;35.60;99.90;;;;;;4859484;28;20233;-81
2021/05/11 14:43:55;;;;;;;4.30;1.38;;;35.10;1.00;;;;;;4876427;28;20205;-73
2021/05/11 14:46:17;;;;;;;7.05;2.17;;;;;;;;;;4842179;28;20230;-76
2021/05/11 14:48:40;;;;;;;2.50;1.02;;;33.50;1.00;;;;;;4859713;28;20181;-73
2021/05/11 14:51:04;;;;;;;2.75;1.00;;;33.40;99.90;;;;;;4859725;28;20198;-84
2021/05/11 14:53:27;;;;;;;3.40;1.15;;;;;;;;;;4870181;28;20767;-79
2021/05/11 14:55:49;;;;;;;3.03;1.05;;;32.70;1.00;;;;;;4876375;28;20193;-80
2021/05/11 14:58:12;;;;;;;8.07;2.45;;;;;;;;;;4875244;28;20270;-83
2021/05/11 15:00:34;;;;;;;23.95;6.97;;;;;;;;;;4857256;28;20623;-82
2021/05/11 15:02:56;;;;;;;4.50;1.55;;;;;;;;;;4859101;28;20249;-79
2021/05/11 15:05:18;;;;;;;13.43;4.43;;;32.30;99.90;;;;;;4840557;28;20325;-80
2021/05/11 15:07:42;;;;;;;2.42;0.95;;;31.10;1.00;;;;;;4859711;28;20487;-79
2021/05/11 15:10:05;;;;;;;2.20;0.93;;;31.30;99.90;;;;;;4876858;28;20550;-80
2021/05/11 15:12:27;;;;;;;3.30;1.33;;;;;;;;;;4868817;28;20232;-83
2021/05/11 15:14:50;;;;;;;3.95;1.40;;;30.50;1.00;;;;;;4858021;28;20198;-83
2021/05/11 15:19:49;;;;;;;1.95;0.90;;;30.20;1.00;;;;;;4875160;28;20370;-81
2021/05/11 15:22:11;;;;;;;3.88;1.50;;;30.50;99.90;;;;;;4842375;28;20202;-82
2021/05/11 15:24:34;;;;;;;4.93;1.85;;;30.50;99.90;;;;;;4873073;28;20193;-80
2021/05/11 15:26:59;;;;;;;1.85;0.80;;;29.90;1.00;;;;;;4858240;28;20198;-82
2021/05/11 15:29:21;;;;;;;6.18;2.30;;;;;;;;;;4825985;28;20737;-84
2021/05/11 15:31:45;;;;;;;3.00;1.15;;;30.80;99.90;;;;;;4858042;28;20210;-76
2021/05/11 15:34:07;;;;;;;4.77;1.70;;;;;;;;;;4877482;28;20298;-80
2021/05/11 15:36:29;;;;;;;3.65;1.48;;;;;;;;;;4876006;28;20654;-81
2021/05/11 15:38:51;;;;;;;2.70;1.10;;;;;;;;;;4842936;28;20249;-80
2021/05/11 15:41:14;;;;;;;3.17;1.40;;;29.60;1.00;;;;;;4842007;28;20259;-79
2021/05/11 15:43:37;;;;;;;3.70;1.53;;;;;;;;;;4858359;28;20186;-79
2021/05/11 15:45:59;;;;;;;1.43;0.73;;;;;;;;;;4875070;28;20723;-81
2021/05/11 15:48:21;;;;;;;4.87;1.90;;;;;;;;;;4857650;28;20255;-81
2021/05/11 15:50:45;;;;;;;3.70;1.50;;;29.50;99.90;;;;;;4876605;28;20627;-82
2021/05/11 15:53:09;;;;;;;4.30;1.83;;;29.40;99.90;;;;;;4858342;28;20291;-78
2021/05/11 15:55:33;;;;;;;4.13;1.70;;;29.40;99.90;;;;;;4824989;28;20255;-79
2021/05/11 15:57:56;;;;;;;3.93;1.73;;;29.60;1.00;;;;;;4875782;28;20254;-78
2021/05/11 16:00:19;;;;;;;2.73;1.53;;;28.60;99.90;;;;;;4886539;28;20242;-77
2021/05/11 16:02:42;;;;;;;2.07;1.00;;;;;;;;;;4875746;28;20247;-79
2021/05/11 16:05:06;;;;;;;3.50;1.53;;;29.20;99.90;;;;;;4874723;28;20611;-83
2021/05/11 16:07:29;;;;;;;2.57;1.10;;;;;;;;;;4872898;28;20187;-86
2021/05/11 16:09:52;;;;;;;2.43;1.23;;;;;;;;;;4858351;28;20213;-79
2021/05/11 16:12:14;;;;;;;2.77;1.53;;;;;;;;;;4876234;28;20181;-83
2021/05/11 16:14:37;;;;;;;2.13;1.13;;;29.10;1.00;;;;;;4842566;28;20204;-76
2021/05/11 16:16:59;;;;;;;1.77;1.00;;;;;;;;;;4841922;28;20193;-80
2021/05/11 16:19:22;;;;;;;4.87;2.13;;;;;;;;;;4875743;28;20195;-79
2021/05/11 16:21:44;;;;;;;1.47;0.83;;;;;;;;;;4876738;28;20550;-82
2021/05/11 16:24:07;;;;;;;2.90;1.40;;;29.30;1.00;;;;;;4875928;28;20191;-80
2021/05/11 16:26:29;;;;;;;1.90;1.00;;;;;;;;;;4875754;28;20183;-78